Hauptseite
METAR-TAF:

METAR-TAF

Flughäfen :

Groningen, Niederlande

Flughafen Groningen

Breite: 53-08N, Länge: 006-35E, Höhe: 4 m

Beobachtung

Neuester Wetterbericht von vor 35 Minuten, um 16:55 UTC
Wind 7 kt aus Nord/Nordost, variierte zwischen Nord und Ost
Temperatur 10°C
Luftfeuchtigkeit 57%
Luftdruck 1018 hPa
Sichtweite 10 km oder mehr

METAR: EHGG 291655Z AUTO 03007KT 360V080 9999 NCD 10/02 Q1018 NOSIG

Zeit: 19:30 (17:30 UTC)

Prognose

Neuester Wetterbericht von vor 6 Stunden und 29 Minuten, um 11:01 UTC
Gültige Prognose vom 29 um 12 UTC bis 30 um 18 UTC
Wind 7 kt aus Nordwest
Sichtweite 10 km oder mehr
Aufgelockert bewölkt in der Höhe von 4000 ft
Übergehend zu
vom 30 um 04 UTC bis 30 um 07 UTC
Wind 10 kt aus Ost
Übergehend zu
vom 30 um 08 UTC bis 30 um 11 UTC
Wind 18 kt aus Südost, Böen bis zu 28 kt

TAF: EHGG 291101Z 2912/3018 31007KT 9999 SCT040 BECMG 3004/3007 10010KT BECMG 3008/3011 13018G28KT

Wetterbeobachtungen und Prognosen von mehr als 4000 Flughäfen (METAR und TAF Bericht).

Die verfügbaren Stationen werden durch gelbe und rote Markierungen auf der Karte dargestellt.

Führen Sie die Maus auf sie, um den Namen der Station zu sehen.

Darauf klicken, um die Beobachtung von Wetterbeobachtungen und Prognosen zu sehen.

Um die Karte zu ändern : klicken Sie auf den grünen Tasten mit einem schwarzen Kreuz Zum Vergrößern, auf den grünen Button mit einem Gedankenstrich zu verkleinern, oder auf die grünen Pfeile für benachbarte Karten.


METAR-TAF: